createdAt,value
2023-03-20T00:02:22.183Z,100720.03
2023-03-20T00:04:52.646Z,100721.78
2023-03-20T00:07:23.398Z,100715.19
2023-03-20T00:09:53.694Z,100721.09
2023-03-20T00:12:30.314Z,100712.66
2023-03-20T00:15:05.894Z,100713.41
2023-03-20T00:17:36.282Z,100711.03
2023-03-20T00:20:06.988Z,100716.41
2023-03-20T00:22:37.528Z,100719.69
2023-03-20T00:25:08.368Z,100718.09
2023-03-20T00:27:38.605Z,100719.00
2023-03-20T00:30:25.712Z,100712.88
2023-03-20T00:32:57.143Z,100713.94
2023-03-20T00:35:31.326Z,100709.66
2023-03-20T00:38:01.772Z,100710.53
2023-03-20T00:40:33.873Z,100710.53
2023-03-20T00:43:06.304Z,100706.22
2023-03-20T00:45:39.835Z,100709.66
2023-03-20T00:48:18.049Z,100711.56
2023-03-20T00:50:49.193Z,100707.19
2023-03-20T00:53:19.632Z,100706.44
2023-03-20T00:55:50.672Z,100709.91
2023-03-20T00:58:21.705Z,100707.31
2023-03-20T01:00:52.147Z,100700.44
2023-03-20T01:03:25.565Z,100708.41
2023-03-20T01:05:55.928Z,100709.16
2023-03-20T01:08:28.194Z,100711.00
2023-03-20T01:11:01.234Z,100711.84
2023-03-20T01:13:33.668Z,100702.28
2023-03-20T01:16:04.055Z,100691.88
2023-03-20T01:18:35.708Z,100690.25
2023-03-20T01:21:06.183Z,100700.53
2023-03-20T01:23:37.098Z,100692.78
2023-03-20T01:26:26.760Z,100687.59
2023-03-20T01:28:57.426Z,100682.53
2023-03-20T01:31:27.961Z,100686.72
2023-03-20T01:33:58.768Z,100675.56
2023-03-20T01:36:29.562Z,100671.19
2023-03-20T01:39:01.175Z,100670.25
2023-03-20T01:41:33.149Z,100663.38
2023-03-20T01:44:20.023Z,100668.50
2023-03-20T01:46:52.269Z,100660.78
2023-03-20T01:49:23.421Z,100658.78
2023-03-20T01:51:55.426Z,100663.28
2023-03-20T01:54:40.454Z,100657.19
2023-03-20T01:57:14.320Z,100656.41
2023-03-20T01:59:53.507Z,100650.22
2023-03-20T02:02:28.680Z,100653.66
2023-03-20T02:05:05.766Z,100642.41
2023-03-20T02:07:38.896Z,100635.59
2023-03-20T02:10:15.639Z,100647.44
2023-03-20T02:12:53.962Z,100632.75
2023-03-20T02:15:34.226Z,100640.50
2023-03-20T02:18:12.537Z,100631.84
2023-03-20T02:21:08.826Z,100617.22
2023-03-20T02:24:17.562Z,100622.28
2023-03-20T02:27:19.662Z,100614.50
2023-03-20T02:30:14.069Z,100602.31
2023-03-20T02:32:51.393Z,100593.81
2023-03-20T02:35:40.458Z,100594.56
2023-03-20T02:38:32.051Z,100584.09
2023-03-20T02:41:12.830Z,100590.97
2023-03-20T02:44:14.849Z,100579.72
2023-03-20T02:47:02.930Z,100580.47
2023-03-20T02:50:05.406Z,100582.38
2023-03-20T02:53:11.212Z,100579.63
2023-03-20T02:56:04.629Z,100583.16
2023-03-20T02:59:25.170Z,100576.28
2023-03-20T03:02:14.054Z,100573.59
2023-03-20T03:04:54.640Z,100561.41
2023-03-20T03:07:29.849Z,100543.34
2023-03-20T03:10:14.531Z,100528.41
2023-03-20T03:12:50.744Z,100524.88
2023-03-20T03:15:31.000Z,100516.25
2023-03-20T03:18:05.002Z,100518.69
2023-03-20T03:20:39.549Z,100508.38
2023-03-20T03:23:16.328Z,100501.47
2023-03-20T03:25:48.404Z,100496.25
2023-03-20T03:28:27.808Z,100496.84
2023-03-20T03:30:59.885Z,100489.13
2023-03-20T03:33:35.051Z,100507.44
2023-03-20T03:36:14.455Z,100497.88
2023-03-20T03:39:00.410Z,100507.13
2023-03-20T03:41:46.472Z,100515.78
2023-03-20T03:44:25.763Z,100495.97
2023-03-20T03:47:04.861Z,100482.94
2023-03-20T03:49:51.074Z,100470.69
2023-03-20T03:52:25.427Z,100471.47
2023-03-20T03:55:02.788Z,100465.31
2023-03-20T03:57:50.605Z,100454.81
2023-03-20T04:00:27.088Z,100461.69
2023-03-20T04:03:00.137Z,100466.06
2023-03-20T04:05:34.944Z,100460.88
2023-03-20T04:08:07.999Z,100444.31
2023-03-20T04:10:38.430Z,100438.97
2023-03-20T04:13:11.942Z,100428.53
2023-03-20T04:15:42.562Z,100425.94
2023-03-20T04:18:21.816Z,100414.84
2023-03-20T04:20:53.943Z,100409.47
2023-03-20T04:23:24.628Z,100412.22
2023-03-20T04:25:55.399Z,100405.19
2023-03-20T04:28:26.093Z,100401.75
2023-03-20T04:31:14.321Z,100408.69
2023-03-20T04:34:13.677Z,100410.22
2023-03-20T04:36:58.819Z,100405.69
2023-03-20T04:39:38.955Z,100394.59
2023-03-20T04:42:10.075Z,100400.59
2023-03-20T04:44:40.680Z,100394.44
2023-03-20T04:47:11.141Z,100402.16
2023-03-20T04:49:45.202Z,100413.59
2023-03-20T04:52:15.878Z,100398.47
2023-03-20T04:54:47.416Z,100394.28
2023-03-20T04:57:18.653Z,100394.09
2023-03-20T04:59:49.625Z,100387.22
2023-03-20T05:02:20.693Z,100390.56
2023-03-20T05:04:51.141Z,100394.88
2023-03-20T05:07:23.094Z,100391.34
2023-03-20T05:09:59.447Z,100397.31
2023-03-20T05:12:31.570Z,100404.97
2023-03-20T05:15:11.476Z,100401.19
2023-03-20T05:17:42.280Z,100400.34
2023-03-20T05:20:28.804Z,100388.94
2023-03-20T05:23:06.441Z,100402.00
2023-03-20T05:25:48.938Z,100397.56
2023-03-20T05:28:53.181Z,100390.66
2023-03-20T05:31:46.323Z,100386.13
2023-03-20T05:34:37.151Z,100381.50
2023-03-20T05:37:14.133Z,100364.03
2023-03-20T05:39:44.546Z,100352.78
2023-03-20T05:42:50.093Z,100352.69
2023-03-20T05:45:52.243Z,100343.84
2023-03-20T05:48:46.895Z,100341.09
2023-03-20T05:51:52.673Z,100339.16
2023-03-20T05:54:45.450Z,100342.50
2023-03-20T05:57:42.401Z,100330.41
2023-03-20T06:00:44.969Z,100321.66
2023-03-20T06:03:47.001Z,100334.63
2023-03-20T06:06:23.067Z,100320.66
2023-03-20T06:08:54.787Z,100319.72
2023-03-20T06:11:25.823Z,100315.50
2023-03-20T06:13:57.323Z,100323.16
2023-03-20T06:16:38.004Z,100332.75
2023-03-20T06:19:08.585Z,100323.25
2023-03-20T06:21:38.831Z,100331.91
2023-03-20T06:24:14.690Z,100327.44
2023-03-20T06:26:46.022Z,100331.56
2023-03-20T06:29:17.144Z,100339.47
2023-03-20T06:31:49.557Z,100332.38
2023-03-20T06:34:29.218Z,100326.53
2023-03-20T06:37:00.515Z,100325.66
2023-03-20T06:39:31.739Z,100327.28
2023-03-20T06:42:02.667Z,100329.78
2023-03-20T06:44:33.338Z,100335.66
2023-03-20T06:47:26.556Z,100329.53
2023-03-20T06:49:56.905Z,100328.31
2023-03-20T06:52:27.315Z,100319.59
2023-03-20T06:55:18.620Z,100331.72
2023-03-20T06:57:49.065Z,100327.34
2023-03-20T07:00:23.164Z,100328.31
2023-03-20T07:02:53.546Z,100329.03
2023-03-20T07:05:25.245Z,100336.75
2023-03-20T07:07:57.264Z,100328.09
2023-03-20T07:10:29.970Z,100336.00
2023-03-20T07:13:00.382Z,100329.88
2023-03-20T07:15:31.627Z,100336.75
2023-03-20T07:18:02.894Z,100325.59
2023-03-20T07:20:33.425Z,100315.72
2023-03-20T07:23:04.135Z,100321.78
2023-03-20T07:25:42.893Z,100310.34
2023-03-20T07:28:18.893Z,100315.38
2023-03-20T07:30:55.149Z,100319.56
2023-03-20T07:33:27.112Z,100322.00
2023-03-20T07:35:57.625Z,100327.13
2023-03-20T07:38:28.115Z,100314.81
2023-03-20T07:41:08.775Z,100318.75
2023-03-20T07:43:44.567Z,100323.16
2023-03-20T07:46:24.144Z,100326.38
2023-03-20T07:48:58.087Z,100322.22
2023-03-20T07:51:28.442Z,100320.59
2023-03-20T07:53:59.685Z,100313.06
2023-03-20T07:56:30.078Z,100311.28
2023-03-20T07:59:00.409Z,100312.16
2023-03-20T08:01:30.815Z,100319.03
2023-03-20T08:04:01.767Z,100306.06
2023-03-20T08:06:32.774Z,100305.22
2023-03-20T08:09:03.718Z,100302.72
2023-03-20T08:11:34.962Z,100307.94
2023-03-20T08:14:05.810Z,100305.22
2023-03-20T08:16:36.322Z,100297.50
2023-03-20T08:19:08.515Z,100294.06
2023-03-20T08:21:38.960Z,100299.38
2023-03-20T08:24:10.197Z,100296.00
2023-03-20T08:26:40.544Z,100296.84
2023-03-20T08:29:10.860Z,100297.78
2023-03-20T08:31:42.501Z,100302.06
2023-03-20T08:34:13.719Z,100296.94
2023-03-20T08:36:43.936Z,100302.25
2023-03-20T08:39:14.121Z,100292.72
2023-03-20T08:41:47.210Z,100290.13
2023-03-20T08:44:18.024Z,100285.78
2023-03-20T08:46:49.096Z,100285.84
2023-03-20T08:49:19.975Z,100288.38
2023-03-20T08:51:50.361Z,100287.63
2023-03-20T08:54:21.748Z,100282.50
2023-03-20T08:56:52.593Z,100289.50
2023-03-20T08:59:22.999Z,100300.75
2023-03-20T09:01:53.432Z,100301.75
2023-03-20T09:04:23.877Z,100301.75
2023-03-20T09:06:54.287Z,100296.53
2023-03-20T09:09:30.743Z,100297.59
2023-03-20T09:12:02.143Z,100297.75
2023-03-20T09:14:32.974Z,100299.66
2023-03-20T09:17:04.185Z,100297.75
2023-03-20T09:19:34.833Z,100298.81
2023-03-20T09:22:05.577Z,100299.00
2023-03-20T09:24:36.002Z,100302.25
2023-03-20T09:27:06.479Z,100296.16
2023-03-20T09:29:36.771Z,100303.19
2023-03-20T09:32:07.296Z,100298.91
2023-03-20T09:34:37.749Z,100299.00
2023-03-20T09:37:08.316Z,100289.44
2023-03-20T09:39:38.698Z,100300.03
2023-03-20T09:42:28.861Z,100290.44
2023-03-20T09:45:22.559Z,100284.38
2023-03-20T09:48:02.972Z,100286.16
2023-03-20T09:51:24.007Z,100286.06
2023-03-20T09:54:21.544Z,100272.28
2023-03-20T09:56:54.696Z,100280.19
2023-03-20T09:59:27.710Z,100270.63
2023-03-20T10:02:07.050Z,100259.34
2023-03-20T10:04:38.566Z,100272.44
2023-03-20T10:07:13.145Z,100275.91
2023-03-20T10:09:44.686Z,100281.09
2023-03-20T10:12:36.011Z,100282.13
2023-03-20T10:15:16.798Z,100289.97
2023-03-20T10:18:04.888Z,100290.06
2023-03-20T10:20:50.943Z,100283.13
2023-03-20T10:24:05.060Z,100282.31
2023-03-20T10:26:39.610Z,100270.94
2023-03-20T10:29:25.821Z,100264.16
2023-03-20T10:31:58.958Z,100251.22
2023-03-20T10:34:51.778Z,100259.94
2023-03-20T10:37:49.432Z,100265.16
2023-03-20T10:40:38.332Z,100264.44
2023-03-20T10:43:23.389Z,100255.69
2023-03-20T10:46:06.938Z,100261.81
2023-03-20T10:48:42.979Z,100272.34
2023-03-20T10:51:20.729Z,100268.97
2023-03-20T10:54:04.852Z,100267.28
2023-03-20T10:56:41.274Z,100271.78
2023-03-20T10:59:24.007Z,100269.06
2023-03-20T11:01:54.777Z,100278.66
2023-03-20T11:04:25.258Z,100279.59
2023-03-20T11:07:21.364Z,100268.22
2023-03-20T11:10:18.645Z,100263.19
2023-03-20T11:12:51.558Z,100265.69
2023-03-20T11:15:33.197Z,100265.88
2023-03-20T11:18:06.634Z,100269.44
2023-03-20T11:20:45.864Z,100271.25
2023-03-20T11:23:23.352Z,100271.34
2023-03-20T11:26:04.415Z,100289.50
2023-03-20T11:28:50.006Z,100280.00
2023-03-20T11:31:27.345Z,100285.22
2023-03-20T11:34:21.333Z,100279.06
2023-03-20T11:37:11.053Z,100266.06
2023-03-20T11:39:54.838Z,100280.16
2023-03-20T11:42:28.772Z,100297.75
2023-03-20T11:45:17.078Z,100295.22
2023-03-20T11:47:56.235Z,100293.47
2023-03-20T11:50:38.257Z,100296.06
2023-03-20T11:53:31.028Z,100298.59
2023-03-20T11:56:08.859Z,100298.59
2023-03-20T11:58:57.911Z,100308.09
2023-03-20T12:01:30.274Z,100308.25
2023-03-20T12:04:00.774Z,100308.19
2023-03-20T12:07:14.280Z,100303.81
2023-03-20T12:09:53.803Z,100312.53
2023-03-20T12:12:29.959Z,100310.09
2023-03-20T12:15:30.684Z,100312.72
2023-03-20T12:18:25.404Z,100305.91
2023-03-20T12:21:17.191Z,100307.50
2023-03-20T12:24:12.269Z,100309.34
2023-03-20T12:27:02.713Z,100315.38
2023-03-20T12:29:45.196Z,100315.38
2023-03-20T12:32:37.254Z,100317.16
2023-03-20T12:35:15.426Z,100313.66
2023-03-20T12:37:47.171Z,100316.31
2023-03-20T12:40:23.444Z,100326.81
2023-03-20T12:43:21.156Z,100327.75
2023-03-20T12:46:26.007Z,100325.16
2023-03-20T12:49:10.130Z,100332.97
2023-03-20T12:51:59.130Z,100329.59
2023-03-20T12:54:42.680Z,100327.81
2023-03-20T12:57:30.039Z,100326.16
2023-03-20T13:00:30.469Z,100329.59
2023-03-20T13:03:06.751Z,100329.59
2023-03-20T13:05:49.356Z,100329.69
2023-03-20T13:08:39.744Z,100330.63
2023-03-20T13:11:13.093Z,100329.78
2023-03-20T13:13:51.734Z,100332.38
2023-03-20T13:16:36.219Z,100338.50
2023-03-20T13:19:29.739Z,100346.50
2023-03-20T13:22:13.990Z,100352.44
2023-03-20T13:24:56.804Z,100355.97
2023-03-20T13:27:41.783Z,100349.09
2023-03-20T13:30:37.331Z,100344.81
2023-03-20T13:33:23.177Z,100334.47
2023-03-20T13:36:10.884Z,100339.78
2023-03-20T13:38:48.705Z,100333.63
2023-03-20T13:41:20.101Z,100345.91
2023-03-20T13:43:58.735Z,100343.22
2023-03-20T13:46:43.083Z,100338.09
2023-03-20T13:49:34.564Z,100341.53
2023-03-20T13:52:11.953Z,100344.28
2023-03-20T13:55:18.738Z,100345.13
2023-03-20T13:58:09.440Z,100352.09
2023-03-20T14:01:17.747Z,100351.44
2023-03-20T14:03:48.962Z,100354.97
2023-03-20T14:06:43.931Z,100357.50
2023-03-20T14:09:32.251Z,100355.78
2023-03-20T14:12:09.454Z,100361.84
2023-03-20T14:14:52.790Z,100365.38
2023-03-20T14:17:23.976Z,100371.50
2023-03-20T14:19:56.138Z,100382.75
2023-03-20T14:22:32.407Z,100397.53
2023-03-20T14:25:10.154Z,100396.81
2023-03-20T14:27:59.342Z,100395.88
2023-03-20T14:30:38.666Z,100396.81
2023-03-20T14:33:18.141Z,100402.91
2023-03-20T14:36:05.277Z,100402.00
2023-03-20T14:38:57.760Z,100399.56
2023-03-20T14:42:03.504Z,100407.50
2023-03-20T14:45:08.384Z,100408.44
2023-03-20T14:47:44.915Z,100407.50
2023-03-20T14:50:25.597Z,100410.13
2023-03-20T14:53:28.110Z,100416.41
2023-03-20T14:55:58.443Z,100400.13
2023-03-20T14:58:59.291Z,100410.34
2023-03-20T15:01:46.415Z,100414.91
2023-03-20T15:04:38.379Z,100424.31
2023-03-20T15:07:32.473Z,100425.22
2023-03-20T15:10:04.901Z,100438.25
2023-03-20T15:12:40.894Z,100430.53
2023-03-20T15:15:27.783Z,100430.53
2023-03-20T15:17:58.447Z,100421.94
2023-03-20T15:20:33.398Z,100417.56
2023-03-20T15:23:06.454Z,100430.53
2023-03-20T15:25:36.260Z,100435.78
2023-03-20T15:28:11.369Z,100431.38
2023-03-20T15:30:43.256Z,100424.47
2023-03-20T15:33:21.646Z,100421.94
2023-03-20T15:35:53.482Z,100424.47
2023-03-20T15:38:24.563Z,100429.75
2023-03-20T15:40:55.188Z,100432.34
2023-03-20T15:43:28.144Z,100444.53
2023-03-20T15:46:16.781Z,100441.00
2023-03-20T15:48:52.254Z,100443.69
2023-03-20T15:51:28.230Z,100436.72
2023-03-20T15:53:58.770Z,100437.56
2023-03-20T15:56:29.857Z,100435.88
2023-03-20T15:59:00.550Z,100434.19
2023-03-20T16:01:34.815Z,100429.00
2023-03-20T16:04:06.520Z,100442.00
2023-03-20T16:06:37.144Z,100429.94
2023-03-20T16:09:10.821Z,100440.34
2023-03-20T16:11:43.604Z,100443.00
2023-03-20T16:14:22.154Z,100440.34
2023-03-20T16:16:55.459Z,100440.41
2023-03-20T16:19:28.649Z,100436.03
2023-03-20T16:22:04.501Z,100433.50
2023-03-20T16:24:40.923Z,100438.72
2023-03-20T16:27:12.535Z,100437.03
2023-03-20T16:29:45.911Z,100440.56
2023-03-20T16:32:40.343Z,100424.13
2023-03-20T16:35:23.428Z,100425.84
2023-03-20T16:37:59.423Z,100412.94
2023-03-20T16:40:40.083Z,100408.66
2023-03-20T16:43:21.624Z,100418.13
2023-03-20T16:45:57.494Z,100411.34
2023-03-20T16:48:35.867Z,100410.47
2023-03-20T16:51:38.278Z,100404.44
2023-03-20T16:54:30.399Z,100414.84
2023-03-20T16:57:02.130Z,100413.16
2023-03-20T16:59:32.868Z,100404.69
2023-03-20T17:02:03.446Z,100406.38
2023-03-20T17:04:41.563Z,100406.38
2023-03-20T17:07:29.435Z,100409.81
2023-03-20T17:10:18.281Z,100413.25
2023-03-20T17:12:51.936Z,100402.84
2023-03-20T17:15:26.398Z,100396.03
2023-03-20T17:17:56.750Z,100399.56
2023-03-20T17:20:33.545Z,100406.44
2023-03-20T17:23:05.067Z,100401.22
2023-03-20T17:25:35.565Z,100397.78
2023-03-20T17:28:06.083Z,100396.97
2023-03-20T17:30:36.965Z,100397.88
2023-03-20T17:33:15.448Z,100397.88
2023-03-20T17:35:46.460Z,100397.03
2023-03-20T17:38:23.091Z,100389.25
2023-03-20T17:40:55.205Z,100393.59
2023-03-20T17:43:27.286Z,100387.47
2023-03-20T17:45:57.700Z,100391.00
2023-03-20T17:48:28.516Z,100387.56
2023-03-20T17:50:59.792Z,100381.50
2023-03-20T17:53:32.500Z,100370.25
2023-03-20T17:56:03.578Z,100371.19
2023-03-20T17:58:33.884Z,100367.75
2023-03-20T18:01:05.351Z,100372.09
2023-03-20T18:03:35.756Z,100367.88
2023-03-20T18:06:08.061Z,100357.44
2023-03-20T18:08:40.421Z,100362.63
2023-03-20T18:11:11.462Z,100360.88
2023-03-20T18:13:42.311Z,100361.84
2023-03-20T18:16:25.606Z,100357.56
2023-03-20T18:18:58.485Z,100351.44
2023-03-20T18:21:29.072Z,100353.22
2023-03-20T18:23:59.317Z,100350.59
2023-03-20T18:26:30.169Z,100355.91
2023-03-20T18:29:00.887Z,100348.09
2023-03-20T18:31:31.364Z,100354.25
2023-03-20T18:34:01.852Z,100360.31
2023-03-20T18:36:32.976Z,100357.72
2023-03-20T18:39:05.725Z,100360.31
2023-03-20T18:41:36.510Z,100356.00
2023-03-20T18:44:06.806Z,100342.13
2023-03-20T18:46:38.079Z,100342.13
2023-03-20T18:49:08.647Z,100338.63
2023-03-20T18:51:39.011Z,100334.38
2023-03-20T18:54:09.964Z,100330.94
2023-03-20T18:56:40.417Z,100322.28
2023-03-20T18:59:14.600Z,100321.50
2023-03-20T19:01:45.444Z,100319.78
2023-03-20T19:04:15.975Z,100316.41
2023-03-20T19:06:46.353Z,100303.31
2023-03-20T19:09:18.759Z,100304.22
2023-03-20T19:11:50.765Z,100307.66
2023-03-20T19:14:21.104Z,100307.84
2023-03-20T19:16:52.751Z,100300.03
2023-03-20T19:19:23.872Z,100294.91
2023-03-20T19:21:54.766Z,100296.66
2023-03-20T19:24:25.602Z,100301.81
2023-03-20T19:26:58.536Z,100301.88
2023-03-20T19:29:28.876Z,100302.72
2023-03-20T19:32:01.369Z,100294.16
2023-03-20T19:35:23.069Z,100289.78
2023-03-20T19:37:22.390Z,100284.69
2023-03-20T19:39:53.037Z,100283.00
2023-03-20T19:42:52.944Z,100282.13
2023-03-20T19:45:14.686Z,100283.00
2023-03-20T19:47:44.994Z,100283.91
2023-03-20T19:50:41.248Z,100276.09
2023-03-20T19:53:14.935Z,100276.19
2023-03-20T19:55:45.522Z,100276.19
2023-03-20T19:58:16.166Z,100280.72
2023-03-20T20:00:57.237Z,100281.72
2023-03-20T20:03:29.242Z,100269.56
2023-03-20T20:06:01.946Z,100267.88
2023-03-20T20:08:45.227Z,100273.22
2023-03-20T20:11:20.593Z,100280.19
2023-03-20T20:14:06.799Z,100274.16
2023-03-20T20:16:41.040Z,100279.41
2023-03-20T20:19:11.480Z,100278.59
2023-03-20T20:24:32.480Z,100284.63
2023-03-20T20:27:16.231Z,100289.06
2023-03-20T20:29:53.526Z,100292.41
2023-03-20T20:32:28.333Z,100297.63
2023-03-20T20:35:40.605Z,100294.28
2023-03-20T20:40:41.049Z,100301.31
2023-03-20T20:43:22.270Z,100294.38
2023-03-20T20:46:03.657Z,100293.53
2023-03-20T20:48:34.075Z,100297.03
2023-03-20T20:51:04.979Z,100300.53
2023-03-20T20:53:35.382Z,100297.19
2023-03-20T20:56:06.078Z,100300.63
2023-03-20T20:58:36.441Z,100298.81
2023-03-20T21:01:07.176Z,100302.41
2023-03-20T21:03:38.297Z,100299.94
2023-03-20T21:06:09.136Z,100292.94
2023-03-20T21:08:39.955Z,100296.84
2023-03-20T21:11:10.381Z,100294.50
2023-03-20T21:13:41.008Z,100288.81
2023-03-20T21:16:11.908Z,100293.06
2023-03-20T21:18:43.307Z,100291.47
2023-03-20T21:21:15.808Z,100290.78
2023-03-20T21:23:46.446Z,100288.56
2023-03-20T21:26:16.893Z,100298.13
2023-03-20T21:28:47.342Z,100298.13
2023-03-20T21:31:28.060Z,100305.59
2023-03-20T21:34:01.033Z,100301.63
2023-03-20T21:36:31.756Z,100301.63
2023-03-20T21:39:08.616Z,100308.47
2023-03-20T21:41:41.110Z,100320.66
2023-03-20T21:44:17.035Z,100324.06
2023-03-20T21:53:12.088Z,100324.75
2023-03-20T21:56:17.038Z,100324.31
2023-03-20T22:18:59.954Z,100332.75
2023-03-20T22:27:35.171Z,100342.13
2023-03-20T22:46:45.485Z,100343.56
2023-03-20T22:49:17.286Z,100347.25
2023-03-20T22:52:07.877Z,100348.88
2023-03-20T22:54:39.101Z,100354.81
2023-03-20T22:57:09.492Z,100360.00
2023-03-20T22:59:39.987Z,100356.66
2023-03-20T23:02:10.856Z,100370.28
2023-03-20T23:04:41.298Z,100354.81
2023-03-20T23:07:12.005Z,100351.47
2023-03-20T23:09:42.412Z,100361.88
2023-03-20T23:12:13.358Z,100359.09
2023-03-20T23:14:46.167Z,100355.81
2023-03-20T23:17:16.809Z,100347.16
2023-03-20T23:19:52.180Z,100342.66
2023-03-20T23:22:27.078Z,100344.56
2023-03-20T23:25:02.903Z,100338.47
2023-03-20T23:27:40.420Z,100341.13
2023-03-20T23:30:12.573Z,100341.97
2023-03-20T23:32:43.539Z,100343.72
2023-03-20T23:35:14.578Z,100341.91
2023-03-20T23:37:45.033Z,100343.66
2023-03-20T23:40:15.858Z,100353.81
2023-03-20T23:42:46.225Z,100346.88
2023-03-20T23:48:08.239Z,100338.28
2023-03-20T23:50:51.822Z,100334.94
2023-03-20T23:53:24.091Z,100327.88
2023-03-20T23:55:58.747Z,100331.31
2023-03-20T23:58:29.977Z,100325.22
